Augusta Regional At Bush Field
KAGS : now visible

Airfield :











YOU CAN JOIN US ON...

 
LOGIN :

Register | Disclaimer

   EN    FR    IT 

 









Legend :    VFR   Marginal VFR   IFR   Intensive IFR   Very Intensive IFR
Visi :
Ceiling :
>= 8 km
>= 3000ft
5 to 8 km
1000 to 3000 ft
1500m to 5 km
500 to 1000 ft
800 to 1500m
200 to 500 ft
< 800m
< 200 ft
Symbols :   Thunderstorms  Fog  Heavy snow  Heavy precipitations  Wind > 20 kt






- Airport Elevation : 144 ft
- IATA code : AGS


KAGS - Augusta Regional At Bush Field

CURRENT METAR :
  • 200653Z AUTO 33006KT 10SM CLR 02/M04 A3019 RMK AO2 SLP223 T00171044 $

EXPIRED METARs :
  • 200553Z AUTO 32008KT 10SM CLR 04/M04 A3019 RMK AO2 SLP221 T00441044 10100 20044 51016 $
  • 200453Z AUTO 32009KT 10SM CLR 06/M05 A3018 RMK AO2 SLP220 T00561050 401720056 $

TAF KAGS
Valid from the 20 at 06:00 until the 21 at 06:00 UTC


200525Z 2006/2106 33008KT P6SM SKC
FM200800 36007KT P6SM SKC
FM201300 36008G15KT P6SM SKC
FM202000 01007KT P6SM SKC



MET'MAP, your aeronautical weather chart ! - Copyright ORBIFLY December 2007 - Disclaimer

ORBIFLY MET'MAP TEAM :

Programming & Development : Alexandra Zaïnal
Concept & original design : Baudouin d'Aumeries
Assistance for programming : Marc-Olivier Méhu
Technical & hardware support : Manuel Goepfert

Contact : metmap@orbifly.com




SOURCES & CREDITS :

   NOAA       Earth
Advisory